Time;durP1;ratioP1;P1;durP2;ratioP2;P2;SDS_P1;SDS_P2;PMS_P1;PMS_P2;Temp;Humidity;BMP_temperature;BMP_pressure;BME280_temperature;BME280_humidity;BME280_pressure;Samples;Min_cycle;Max_cycle;Signal;HPM_P1;HPM_P2
2022/12/04 00:02:10;;;;;;;28.70;12.52;;;;;;;;;;4890152;29;20100;-82
2022/12/04 00:04:36;;;;;;;27.77;12.77;;;;;;;;;;4907826;29;20075;-84
2022/12/04 00:07:02;;;;;;;23.83;11.98;;;;;;;;;;4908295;29;20478;-84
2022/12/04 00:09:27;;;;;;;29.63;13.02;;;;;;;;;;4907657;29;20036;-83
2022/12/04 00:11:53;;;;;;;26.88;13.07;;;;;;;;;;4907904;29;20044;-83
2022/12/04 00:14:18;;;;;;;29.73;12.77;;;;;;;;;;4907132;29;20029;-83
2022/12/04 00:16:44;;;;;;;27.83;12.75;;;;;;;;;;4890706;29;20060;-83
2022/12/04 00:19:09;;;;;;;27.63;12.73;;;;;;;;;;4889453;29;20040;-83
2022/12/04 00:21:35;;;;;;;33.50;12.40;;;;;;;;;;4890916;29;20111;-83
2022/12/04 00:24:01;;;;;;;27.83;12.05;;;;;;;;;;4908280;29;20057;-83
2022/12/04 00:26:27;;;;;;;25.98;12.73;;;;;;;;;;4907567;29;20044;-83
2022/12/04 00:28:54;;;;;;;25.80;11.82;;;;;;;;;;4890376;29;20036;-83
2022/12/04 00:31:23;;;;;;;25.83;12.18;;;;;;;;;;4906851;29;20100;-83
2022/12/04 00:33:49;;;;;;;28.50;13.45;;;;;;;;;;4907014;29;20055;-83
2022/12/04 00:36:17;;;;;;;31.30;15.57;;;;;;;;;;4907172;29;20024;-84
2022/12/04 00:38:44;;;;;;;24.90;11.00;;;;;;;;;;4907038;29;20135;-82
2022/12/04 00:41:15;;;;;;;23.88;11.07;;;;;;;;;;4890539;29;20068;-83
2022/12/04 00:43:41;;;;;;;22.20;11.07;;;;;;;;;;4907650;29;20203;-83
2022/12/04 00:46:08;;;;;;;25.95;12.00;;;;;;;;;;4906775;29;20033;-83
2022/12/04 00:48:33;;;;;;;21.45;11.18;;;;;;;;;;4889914;29;20040;-83
2022/12/04 00:51:08;;;;;;;22.77;11.43;;;;;;;;;;4906637;29;20051;-82
2022/12/04 00:53:34;;;;;;;24.70;11.85;;;;;;;;;;4906503;29;20036;-82
2022/12/04 00:56:09;;;;;;;22.00;10.65;;;;;;;;;;4905809;29;20122;-83
2022/12/04 00:58:35;;;;;;;24.60;12.07;;;;;;;;;;4906983;29;20040;-83
2022/12/04 01:01:04;;;;;;;23.83;11.18;;;;;;;;;;4875579;23;1124270;-84
2022/12/04 01:03:30;;;;;;;22.67;11.40;;;;;;;;;;4873612;29;20043;-84
2022/12/04 01:05:55;;;;;;;26.80;11.30;;;;;;;;;;4888159;29;20033;-83
2022/12/04 01:08:21;;;;;;;26.20;13.35;;;;;;;;;;4906740;29;20561;-84
2022/12/04 01:10:46;;;;;;;31.98;14.52;;;;;;;;;;4889388;29;20036;-84
2022/12/04 01:13:11;;;;;;;35.88;18.20;;;;;;;;;;4906436;29;20067;-84
2022/12/04 01:15:40;;;;;;;31.05;12.43;;;;;;;;;;4888772;29;20044;-83
2022/12/04 01:18:05;;;;;;;25.52;11.98;;;;;;;;;;4888728;29;20036;-84
2022/12/04 01:20:31;;;;;;;28.10;10.02;;;;;;;;;;4889422;29;20032;-83
2022/12/04 01:22:56;;;;;;;26.20;11.48;;;;;;;;;;4888791;29;20088;-84
2022/12/04 01:25:22;;;;;;;26.25;11.43;;;;;;;;;;4905236;29;20489;-83
2022/12/04 01:27:47;;;;;;;24.70;10.98;;;;;;;;;;4905098;29;20041;-84
2022/12/04 01:30:13;;;;;;;23.90;11.55;;;;;;;;;;4905054;29;20037;-84
2022/12/04 01:32:38;;;;;;;69.38;33.88;;;;;;;;;;4905828;29;20033;-84
2022/12/04 01:35:05;;;;;;;33.97;14.93;;;;;;;;;;4905642;29;20032;-84
2022/12/04 01:37:31;;;;;;;24.88;11.93;;;;;;;;;;4872644;29;20180;-83
2022/12/04 01:39:57;;;;;;;23.58;11.80;;;;;;;;;;4889416;29;20032;-84
2022/12/04 01:42:23;;;;;;;24.05;11.05;;;;;;;;;;4906847;29;20036;-85
2022/12/04 01:45:43;;;;;;;26.75;11.35;;;;;;;;;;4923853;29;20046;-84
2022/12/04 01:48:17;;;;;;;56.05;11.77;;;;;;;;;;4829022;29;20038;-84
2022/12/04 01:50:44;;;;;;;27.17;11.20;;;;;;;;;;4910095;29;20050;-84
2022/12/04 01:53:10;;;;;;;23.17;11.30;;;;;;;;;;4924527;29;20107;-84
2022/12/04 01:55:36;;;;;;;25.25;11.27;;;;;;;;;;4923446;29;20068;-84
2022/12/04 01:58:02;;;;;;;25.95;11.88;;;;;;;;;;4924051;29;20036;-84
2022/12/04 02:00:27;;;;;;;24.70;11.77;;;;;;;;;;4924060;29;20460;-84
2022/12/04 02:02:54;;;;;;;26.05;11.70;;;;;;;;;;4907069;29;20060;-84
2022/12/04 02:05:20;;;;;;;25.67;10.70;;;;;;;;;;4906253;29;20141;-84
2022/12/04 02:07:49;;;;;;;31.27;12.18;;;;;;;;;;4906947;29;20490;-84
2022/12/04 02:10:16;;;;;;;36.38;12.13;;;;;;;;;;4923302;29;20123;-84
2022/12/04 02:12:53;;;;;;;37.63;12.32;;;;;;;;;;4906738;29;20044;-83
2022/12/04 02:15:48;;;;;;;24.02;11.98;;;;;;;;;;4906498;29;20409;-84
2022/12/04 02:18:32;;;;;;;21.65;10.60;;;;;;;;;;4923739;29;20383;-85
2022/12/04 02:21:16;;;;;;;37.47;12.18;;;;;;;;;;4907328;29;20036;-84
2022/12/04 02:24:09;;;;;;;20.48;10.13;;;;;;;;;;4907003;29;20320;-84
2022/12/04 02:27:15;;;;;;;30.20;10.18;;;;;;;;;;4906803;29;20119;-84
2022/12/04 02:29:56;;;;;;;23.92;9.85;;;;;;;;;;4870215;29;20044;-84
2022/12/04 02:32:28;;;;;;;22.50;10.43;;;;;;;;;;4907175;29;20040;-84
2022/12/04 02:35:09;;;;;;;34.85;10.45;;;;;;;;;;4922933;29;20040;-84
2022/12/04 02:37:37;;;;;;;36.83;10.93;;;;;;;;;;4924192;29;20502;-83
2022/12/04 02:40:35;;;;;;;40.17;12.07;;;;;;;;;;4924844;29;20036;-85
2022/12/04 02:43:31;;;;;;;37.97;9.77;;;;;;;;;;4923556;29;20669;-83
2022/12/04 02:46:05;;;;;;;26.27;9.93;;;;;;;;;;4906639;29;20040;-84
2022/12/04 02:48:34;;;;;;;24.92;11.52;;;;;;;;;;4923185;29;20032;-84
2022/12/04 02:51:02;;;;;;;26.90;10.23;;;;;;;;;;4907238;29;20036;-84
2022/12/04 02:53:33;;;;;;;53.47;9.82;;;;;;;;;;4924034;29;20032;-84
2022/12/04 02:56:05;;;;;;;31.17;10.38;;;;;;;;;;4905826;29;20537;-84
2022/12/04 02:58:40;;;;;;;28.80;9.98;;;;;;;;;;4906511;29;20061;-85
2022/12/04 03:01:22;;;;;;;23.50;10.15;;;;;;;;;;4906243;29;20042;-84
2022/12/04 03:03:57;;;;;;;26.17;10.48;;;;;;;;;;4906293;29;20548;-83
2022/12/04 03:06:26;;;;;;;34.75;10.23;;;;;;;;;;4924122;29;21034;-83
2022/12/04 03:09:01;;;;;;;32.42;10.48;;;;;;;;;;4906727;29;20036;-84
2022/12/04 03:11:32;;;;;;;29.73;10.30;;;;;;;;;;4922962;29;20032;-84
2022/12/04 03:14:12;;;;;;;40.63;10.65;;;;;;;;;;4905465;29;20056;-81
2022/12/04 03:16:41;;;;;;;38.17;10.52;;;;;;;;;;4905595;29;20036;-84
2022/12/04 03:19:22;;;;;;;51.45;12.75;;;;;;;;;;4923894;29;20482;-84
2022/12/04 03:21:55;;;;;;;37.08;9.95;;;;;;;;;;4923623;29;20043;-83
2022/12/04 03:24:28;;;;;;;33.50;11.47;;;;;;;;;;4906069;29;20046;-84
2022/12/04 03:27:02;;;;;;;25.17;10.77;;;;;;;;;;4923498;29;20039;-84
2022/12/04 03:29:51;;;;;;;28.40;10.13;;;;;;;;;;4906291;29;20044;-84
2022/12/04 03:32:41;;;;;;;29.83;9.02;;;;;;;;;;4914891;29;20079;-84
2022/12/04 03:35:16;;;;;;;23.73;9.27;;;;;;;;;;4905045;29;20063;-85
2022/12/04 03:38:17;;;;;;;22.67;9.50;;;;;;;;;;4906187;29;20036;-86
2022/12/04 03:41:00;;;;;;;44.83;10.73;;;;;;;;;;4902320;29;20048;-84
2022/12/04 03:43:32;;;;;;;;;;;;;;;;;;4890920;29;20096;-85
2022/12/04 03:46:30;;;;;;;20.63;8.63;;;;;;;;;;4904271;29;20014;-83
2022/12/04 03:49:06;;;;;;;18.58;9.23;;;;;;;;;;4893006;29;20425;-83
2022/12/04 03:51:40;;;;;;;28.45;9.95;;;;;;;;;;4922996;29;20036;-84
2022/12/04 03:54:18;;;;;;;24.55;9.50;;;;;;;;;;4904784;29;20066;-83
2022/12/04 03:56:50;;;;;;;34.33;10.25;;;;;;;;;;4905038;29;20072;-82
2022/12/04 03:59:51;;;;;;;26.95;9.77;;;;;;;;;;4905547;29;20179;-84
2022/12/04 04:02:21;;;;;;;27.77;9.35;;;;;;;;;;4891572;29;20064;-83
2022/12/04 04:04:50;;;;;;;22.75;9.65;;;;;;;;;;4921850;29;20028;-85
2022/12/04 04:07:25;;;;;;;19.33;9.93;;;;;;;;;;4922811;29;20065;-83
2022/12/04 04:09:56;;;;;;;24.98;9.52;;;;;;;;;;4904860;29;20036;-84
2022/12/04 04:12:25;;;;;;;29.23;8.35;;;;;;;;;;4922601;29;20032;-84
2022/12/04 04:26:14;;;;;;;16.15;8.18;;;;;;;;;;4922273;29;20032;-86
2022/12/04 04:28:41;;;;;;;33.35;8.45;;;;;;;;;;4922224;29;20036;-85
2022/12/04 04:31:40;;;;;;;32.03;8.68;;;;;;;;;;4905206;29;20065;-85
2022/12/04 04:34:11;;;;;;;19.73;8.02;;;;;;;;;;4923589;29;20485;-84
2022/12/04 04:36:58;;;;;;;38.90;9.02;;;;;;;;;;4893037;29;20059;-84
2022/12/04 04:39:30;;;;;;;16.65;8.20;;;;;;;;;;4909037;29;20036;-85
2022/12/04 04:42:11;;;;;;;31.35;8.75;;;;;;;;;;4926088;29;20040;-84
2022/12/04 04:44:44;;;;;;;18.58;8.45;;;;;;;;;;4925703;29;20648;-84
2022/12/04 04:47:17;;;;;;;16.85;8.63;;;;;;;;;;4908956;29;20132;-85
2022/12/04 04:49:47;;;;;;;19.50;8.50;;;;;;;;;;4908804;29;20052;-85
2022/12/04 04:52:16;;;;;;;17.75;8.50;;;;;;;;;;4908874;29;20036;-84
2022/12/04 04:54:42;;;;;;;31.60;8.15;;;;;;;;;;4926137;29;20078;-85
2022/12/04 04:57:07;;;;;;;18.90;8.73;;;;;;;;;;4926289;29;20051;-85
2022/12/04 04:59:33;;;;;;;22.30;8.15;;;;;;;;;;4908766;29;20031;-85
2022/12/04 05:01:58;;;;;;;37.90;8.73;;;;;;;;;;4924403;29;20115;-85
2022/12/04 05:04:24;;;;;;;18.13;8.45;;;;;;;;;;4908577;29;20036;-84
2022/12/04 05:06:49;;;;;;;24.13;8.35;;;;;;;;;;4926179;29;20382;-85
2022/12/04 05:09:15;;;;;;;24.58;8.90;;;;;;;;;;4908281;29;20059;-84
2022/12/04 05:11:40;;;;;;;34.97;9.40;;;;;;;;;;4908667;29;20037;-85
2022/12/04 05:14:08;;;;;;;17.55;8.98;;;;;;;;;;4907698;29;20412;-85
2022/12/04 05:16:33;;;;;;;44.45;8.95;;;;;;;;;;4908361;29;20070;-85
2022/12/04 05:21:42;;;;;;;;;;;;;;;;;;4908854;29;20058;-84
2022/12/04 05:24:08;;;;;;;18.98;9.10;;;;;;;;;;4925647;29;20405;-85
2022/12/04 05:26:34;;;;;;;30.75;10.00;;;;;;;;;;4892918;29;20036;-85
2022/12/04 05:28:59;;;;;;;17.23;9.20;;;;;;;;;;4925745;29;20135;-83
2022/12/04 05:31:25;;;;;;;21.05;7.82;;;;;;;;;;4924712;29;20040;-86
2022/12/04 05:33:50;;;;;;;29.88;8.43;;;;;;;;;;4907798;29;20139;-83
2022/12/04 05:36:16;;;;;;;42.42;8.45;;;;;;;;;;4925293;29;20508;-82
2022/12/04 05:38:41;;;;;;;29.33;8.90;;;;;;;;;;4922725;29;20036;-85
2022/12/04 05:41:07;;;;;;;41.88;9.10;;;;;;;;;;4907636;29;20028;-85
2022/12/04 05:43:33;;;;;;;31.42;9.45;;;;;;;;;;4906977;29;20506;-84
2022/12/04 05:46:06;;;;;;;47.75;9.45;;;;;;;;;;4890745;29;20032;-85
2022/12/04 05:48:32;;;;;;;25.20;8.75;;;;;;;;;;4907651;29;20051;-85
2022/12/04 05:50:57;;;;;;;45.00;8.88;;;;;;;;;;4924277;29;20044;-85
2022/12/04 05:53:23;;;;;;;43.38;9.52;;;;;;;;;;4907577;29;20040;-85
2022/12/04 05:55:56;;;;;;;26.92;9.40;;;;;;;;;;4923916;29;20035;-84
2022/12/04 05:58:22;;;;;;;18.73;8.88;;;;;;;;;;4907525;29;20466;-85
2022/12/04 06:00:47;;;;;;;33.92;9.48;;;;;;;;;;4924357;29;20044;-84
2022/12/04 06:03:13;;;;;;;22.85;8.95;;;;;;;;;;4907066;29;20051;-83
2022/12/04 06:05:38;;;;;;;43.70;9.35;;;;;;;;;;4923848;29;20036;-85
2022/12/04 06:08:04;;;;;;;22.38;8.27;;;;;;;;;;4906467;29;20040;-85
2022/12/04 06:10:29;;;;;;;16.70;8.65;;;;;;;;;;4923730;29;20119;-83
2022/12/04 06:12:56;;;;;;;19.67;8.32;;;;;;;;;;4923878;29;20044;-84
2022/12/04 06:15:22;;;;;;;40.53;8.38;;;;;;;;;;4924209;29;20036;-85
2022/12/04 06:17:48;;;;;;;48.53;8.73;;;;;;;;;;4922340;29;20486;-84
2022/12/04 06:20:13;;;;;;;18.63;8.55;;;;;;;;;;4904722;29;20084;-84
2022/12/04 06:22:39;;;;;;;34.83;8.85;;;;;;;;;;4904861;29;20123;-84
2022/12/04 06:25:05;;;;;;;35.25;8.73;;;;;;;;;;4904693;29;20470;-84
2022/12/04 06:27:31;;;;;;;98.05;16.15;;;;;;;;;;4889667;29;20036;-86
2022/12/04 06:29:57;;;;;;;53.88;18.27;;;;;;;;;;4922083;29;20190;-84
2022/12/04 06:32:22;;;;;;;55.70;13.82;;;;;;;;;;4904785;29;20447;-84
2022/12/04 06:34:52;;;;;;;29.92;12.60;;;;;;;;;;4904439;29;20040;-83
2022/12/04 06:37:19;;;;;;;30.33;11.25;;;;;;;;;;4904886;29;20119;-82
2022/12/04 06:39:45;;;;;;;18.38;8.23;;;;;;;;;;4921759;29;20115;-84
2022/12/04 06:42:10;;;;;;;19.92;7.53;;;;;;;;;;4904544;29;20135;-84
2022/12/04 06:44:36;;;;;;;15.98;7.63;;;;;;;;;;4889222;29;20036;-84
2022/12/04 06:47:01;;;;;;;40.75;10.48;;;;;;;;;;4904716;29;20047;-84
2022/12/04 06:49:27;;;;;;;20.67;8.82;;;;;;;;;;4904123;29;20046;-83
2022/12/04 06:51:52;;;;;;;29.73;8.40;;;;;;;;;;4904511;29;20040;-84
2022/12/04 06:54:18;;;;;;;39.65;10.50;;;;;;;;;;4903471;29;20480;-84
2022/12/04 06:56:43;;;;;;;81.70;14.93;;;;;;;;;;4920414;29;20131;-83
2022/12/04 06:59:09;;;;;;;28.25;10.57;;;;;;;;;;4904205;29;20039;-83
2022/12/04 07:01:34;;;;;;;44.90;10.82;;;;;;;;;;4911393;23;20068;-83
2022/12/04 07:04:02;;;;;;;62.42;10.07;;;;;;;;;;4951784;29;20054;-83
2022/12/04 07:06:35;;;;;;;34.67;12.20;;;;;;;;;;4967078;29;20132;-84
2022/12/04 07:09:14;;;;;;;66.07;9.03;;;;;;;;;;4965536;29;20035;-83
2022/12/04 07:11:41;;;;;;;46.58;7.82;;;;;;;;;;4946600;29;20498;-82
2022/12/04 07:14:07;;;;;;;76.32;9.10;;;;;;;;;;4963695;29;20472;-82
2022/12/04 07:16:32;;;;;;;40.88;10.43;;;;;;;;;;4964679;29;20085;-83
2022/12/04 07:19:00;;;;;;;35.58;10.32;;;;;;;;;;4963916;29;20042;-83
2022/12/04 07:21:29;;;;;;;49.72;11.68;;;;;;;;;;4962829;29;20141;-84
2022/12/04 07:23:57;;;;;;;29.58;9.85;;;;;;;;;;4945765;29;20043;-83
2022/12/04 07:26:23;;;;;;;21.63;8.55;;;;;;;;;;4964284;29;20035;-83
2022/12/04 07:28:49;;;;;;;25.00;9.93;;;;;;;;;;4966595;29;20043;-83
2022/12/04 07:31:17;;;;;;;26.20;8.55;;;;;;;;;;4949860;29;20031;-83
2022/12/04 07:33:44;;;;;;;13.52;7.50;;;;;;;;;;4947593;29;20493;-83
2022/12/04 07:36:16;;;;;;;13.05;7.32;;;;;;;;;;4964105;29;20035;-83
2022/12/04 07:38:42;;;;;;;17.80;8.10;;;;;;;;;;4945878;29;20028;-83
2022/12/04 07:41:09;;;;;;;23.58;10.57;;;;;;;;;;4964169;29;20411;-83
2022/12/04 07:43:35;;;;;;;16.85;6.72;;;;;;;;;;4965153;29;20045;-82
2022/12/04 07:46:21;;;;;;;15.50;6.85;;;;;;;;;;4965150;29;20488;-81
2022/12/04 07:48:47;;;;;;;19.58;8.40;;;;;;;;;;4965029;29;20039;-83
2022/12/04 07:51:18;;;;;;;19.65;7.47;;;;;;;;;;4965176;29;20030;-83
2022/12/04 07:53:44;;;;;;;22.52;7.88;;;;;;;;;;4948349;29;20043;-84
2022/12/04 07:56:11;;;;;;;13.52;7.95;;;;;;;;;;4966034;29;20086;-83
2022/12/04 07:58:37;;;;;;;16.55;7.68;;;;;;;;;;4963924;29;20099;-83
2022/12/04 08:01:05;;;;;;;15.65;7.47;;;;;;;;;;4935670;29;20405;-83
2022/12/04 08:03:31;;;;;;;22.80;8.30;;;;;;;;;;4909627;29;20040;-82
2022/12/04 08:06:04;;;;;;;13.68;6.70;;;;;;;;;;4922906;29;20134;-82
2022/12/04 08:08:30;;;;;;;26.70;7.57;;;;;;;;;;4923023;29;20032;-83
2022/12/04 08:10:56;;;;;;;42.55;8.55;;;;;;;;;;4923316;29;20505;-82
2022/12/04 08:13:21;;;;;;;25.58;12.02;;;;;;;;;;4922859;29;20063;-82
2022/12/04 08:15:47;;;;;;;18.67;8.73;;;;;;;;;;4920828;29;20074;-84
2022/12/04 08:18:12;;;;;;;14.27;7.53;;;;;;;;;;4901930;29;20035;-83
2022/12/04 08:20:38;;;;;;;17.63;8.88;;;;;;;;;;4919025;29;20482;-84
2022/12/04 08:23:03;;;;;;;15.77;9.70;;;;;;;;;;4920639;29;20091;-84
2022/12/04 08:25:29;;;;;;;20.00;11.25;;;;;;;;;;4919884;29;20107;-86
2022/12/04 08:27:54;;;;;;;14.93;8.93;;;;;;;;;;4920165;29;20417;-83
2022/12/04 08:30:20;;;;;;;13.98;7.68;;;;;;;;;;4919721;29;20071;-86
2022/12/04 08:32:45;;;;;;;18.55;9.23;;;;;;;;;;4920625;29;20036;-84
2022/12/04 08:35:11;;;;;;;13.10;7.35;;;;;;;;;;4922508;29;20120;-84
2022/12/04 08:37:36;;;;;;;12.05;7.20;;;;;;;;;;4906295;29;20051;-84
2022/12/04 08:40:02;;;;;;;12.38;7.38;;;;;;;;;;4922736;29;20036;-84
2022/12/04 08:42:28;;;;;;;10.73;6.78;;;;;;;;;;4922626;29;20409;-85
2022/12/04 08:44:53;;;;;;;12.00;7.18;;;;;;;;;;4923666;29;20059;-85
2022/12/04 08:47:19;;;;;;;15.23;7.50;;;;;;;;;;4907871;29;20044;-83
2022/12/04 08:49:44;;;;;;;15.13;7.60;;;;;;;;;;4924811;29;20083;-85
2022/12/04 08:52:10;;;;;;;12.20;6.95;;;;;;;;;;4923730;29;20127;-87
2022/12/04 08:54:35;;;;;;;13.65;8.10;;;;;;;;;;4891203;29;20036;-84
2022/12/04 08:57:01;;;;;;;12.07;7.63;;;;;;;;;;4906112;29;20040;-84
2022/12/04 08:59:27;;;;;;;13.63;7.82;;;;;;;;;;4923601;29;20036;-85
2022/12/04 09:01:52;;;;;;;11.50;7.22;;;;;;;;;;4923346;29;20073;-84
2022/12/04 09:04:18;;;;;;;11.93;6.90;;;;;;;;;;4923614;29;20123;-84
2022/12/04 09:06:44;;;;;;;12.68;7.85;;;;;;;;;;4924286;29;20036;-84
2022/12/04 09:09:09;;;;;;;13.98;7.65;;;;;;;;;;4924103;29;20036;-86
2022/12/04 09:11:35;;;;;;;12.35;7.45;;;;;;;;;;4923340;29;20405;-84
2022/12/04 09:14:01;;;;;;;13.07;7.63;;;;;;;;;;4908361;29;20051;-87
2022/12/04 09:16:27;;;;;;;11.40;7.30;;;;;;;;;;4909124;29;20063;-84
2022/12/04 09:18:53;;;;;;;11.95;7.55;;;;;;;;;;4926576;29;20485;-83
2022/12/04 09:21:20;;;;;;;11.63;7.10;;;;;;;;;;4911739;29;20096;-83
2022/12/04 09:23:46;;;;;;;14.60;7.30;;;;;;;;;;4930088;29;20043;-84
2022/12/04 09:26:23;;;;;;;14.23;7.63;;;;;;;;;;4931170;29;20430;-84
2022/12/04 09:28:49;;;;;;;11.38;6.38;;;;;;;;;;4967836;29;20039;-84
2022/12/04 09:31:15;;;;;;;12.13;7.18;;;;;;;;;;4967622;29;20031;-84
2022/12/04 09:33:41;;;;;;;12.05;6.75;;;;;;;;;;4968194;29;20035;-84
2022/12/04 09:36:06;;;;;;;9.35;6.05;;;;;;;;;;4967651;29;20465;-84
2022/12/04 09:38:32;;;;;;;11.65;6.88;;;;;;;;;;4949204;29;20504;-84
2022/12/04 09:41:06;;;;;;;11.80;6.95;;;;;;;;;;4968030;29;20035;-83
2022/12/04 09:43:38;;;;;;;11.35;7.13;;;;;;;;;;4950900;29;20058;-83
2022/12/04 09:46:10;;;;;;;9.50;6.35;;;;;;;;;;4967557;29;20484;-84
2022/12/04 09:48:39;;;;;;;9.80;6.25;;;;;;;;;;4949926;29;20035;-83
2022/12/04 09:51:07;;;;;;;11.27;6.75;;;;;;;;;;4968127;29;20039;-84
2022/12/04 09:54:02;;;;;;;11.90;7.40;;;;;;;;;;4967476;29;20046;-83
2022/12/04 09:56:30;;;;;;;13.85;8.18;;;;;;;;;;4966696;29;20040;-83
2022/12/04 09:59:07;;;;;;;11.45;6.88;;;;;;;;;;4948776;29;20057;-83
2022/12/04 10:01:47;;;;;;;14.32;7.75;;;;;;;;;;4943679;29;20036;-84
2022/12/04 10:04:13;;;;;;;16.50;9.65;;;;;;;;;;4945986;29;20043;-84
2022/12/04 10:06:57;;;;;;;16.85;8.65;;;;;;;;;;4966055;29;20046;-85
2022/12/04 10:09:34;;;;;;;;;;;;;;;;;;4965278;29;20082;-81
2022/12/04 10:12:06;;;;;;;12.73;7.50;;;;;;;;;;4965631;29;19918;-84
2022/12/04 10:14:40;;;;;;;13.38;7.70;;;;;;;;;;4965735;29;20047;-84
2022/12/04 10:17:18;;;;;;;15.27;8.40;;;;;;;;;;4966081;29;20047;-84
2022/12/04 10:20:10;;;;;;;13.50;8.57;;;;;;;;;;4948812;29;20035;-84
2022/12/04 10:22:56;;;;;;;15.77;9.07;;;;;;;;;;4966157;29;20038;-84
2022/12/04 10:25:24;;;;;;;15.43;9.30;;;;;;;;;;4950057;29;20396;-84
2022/12/04 10:27:56;;;;;;;17.92;8.02;;;;;;;;;;4963893;29;20043;-84
2022/12/04 10:30:25;;;;;;;17.45;10.90;;;;;;;;;;4964971;29;20039;-84
2022/12/04 10:32:58;;;;;;;17.50;10.43;;;;;;;;;;4963856;28;20050;-84
2022/12/04 10:35:28;;;;;;;17.17;9.65;;;;;;;;;;4947107;29;20035;-84
2022/12/04 10:38:09;;;;;;;16.00;9.10;;;;;;;;;;4948623;29;20050;-84
2022/12/04 10:40:49;;;;;;;16.08;9.00;;;;;;;;;;4948929;29;20039;-83
2022/12/04 10:43:35;;;;;;;13.63;8.32;;;;;;;;;;4966145;29;20042;-83
2022/12/04 10:46:00;;;;;;;13.80;8.32;;;;;;;;;;4965668;29;20126;-83
2022/12/04 10:48:33;;;;;;;14.88;8.85;;;;;;;;;;4964821;29;20066;-84
2022/12/04 10:50:58;;;;;;;14.00;8.83;;;;;;;;;;4965945;29;20043;-84
2022/12/04 10:53:30;;;;;;;14.20;8.27;;;;;;;;;;4964112;29;20039;-84
2022/12/04 10:56:06;;;;;;;14.43;8.50;;;;;;;;;;4947182;29;20035;-84
2022/12/04 10:58:31;;;;;;;14.60;8.50;;;;;;;;;;4964842;29;20039;-85
2022/12/04 11:01:04;;;;;;;14.18;8.65;;;;;;;;;;4965050;29;20023;-85
2022/12/04 11:03:30;;;;;;;15.95;8.85;;;;;;;;;;4947996;29;20035;-85
2022/12/04 11:05:59;;;;;;;14.93;8.68;;;;;;;;;;4948930;29;20054;-85
2022/12/04 11:08:37;;;;;;;14.50;8.80;;;;;;;;;;4964575;29;20035;-85
2022/12/04 11:11:10;;;;;;;12.00;7.97;;;;;;;;;;4945056;29;20035;-88
2022/12/04 11:13:36;;;;;;;18.40;9.90;;;;;;;;;;4933355;29;20047;-85
2022/12/04 11:16:02;;;;;;;13.05;8.40;;;;;;;;;;4937915;29;20027;-85
2022/12/04 11:18:31;;;;;;;14.30;7.95;;;;;;;;;;4927570;29;20039;-86
2022/12/04 11:20:58;;;;;;;20.20;9.32;;;;;;;;;;4928102;29;20042;-89
2022/12/04 11:23:25;;;;;;;18.67;10.50;;;;;;;;;;4925851;29;20036;-84
2022/12/04 11:25:54;;;;;;;17.45;10.95;;;;;;;;;;4938060;29;20066;-85
2022/12/04 11:28:28;;;;;;;16.88;9.82;;;;;;;;;;4939361;29;20036;-85
2022/12/04 11:30:55;;;;;;;27.75;11.75;;;;;;;;;;4937410;29;20386;-84
2022/12/04 11:33:31;;;;;;;17.73;10.88;;;;;;;;;;4938744;29;20114;-84
2022/12/04 11:36:01;;;;;;;14.52;8.43;;;;;;;;;;4921484;29;20051;-82
2022/12/04 11:38:29;;;;;;;13.93;8.70;;;;;;;;;;4938599;29;20042;-83
2022/12/04 11:40:57;;;;;;;17.83;9.18;;;;;;;;;;4917393;29;20040;-84
2022/12/04 11:43:26;;;;;;;16.27;8.77;;;;;;;;;;4917949;29;20054;-83
2022/12/04 11:46:03;;;;;;;16.88;9.02;;;;;;;;;;4918610;29;20524;-83
2022/12/04 11:48:31;;;;;;;111.97;47.80;;;;;;;;;;4902571;29;20148;-83
2022/12/04 11:51:46;;;;;;;20.33;11.40;;;;;;;;;;4922393;29;20036;-81
2022/12/04 11:54:29;;;;;;;39.65;18.48;;;;;;;;;;4823956;29;20054;-82
2022/12/04 11:57:42;;;;;;;16.50;9.45;;;;;;;;;;4917204;29;20497;-84
2022/12/04 12:00:18;;;;;;;13.27;7.93;;;;;;;;;;4834450;29;20095;-81
2022/12/04 12:03:02;;;;;;;13.43;8.30;;;;;;;;;;4919102;29;20040;-82
2022/12/04 12:05:39;;;;;;;14.57;8.40;;;;;;;;;;4919673;29;20050;-82
2022/12/04 12:08:19;;;;;;;16.05;8.52;;;;;;;;;;4922492;29;20040;-83
2022/12/04 12:11:03;;;;;;;11.77;7.78;;;;;;;;;;4921379;29;20036;-82
2022/12/04 12:13:50;;;;;;;14.00;8.10;;;;;;;;;;4919113;29;20123;-85
2022/12/04 12:16:50;;;;;;;13.38;7.22;;;;;;;;;;4931347;29;20038;-85
2022/12/04 12:19:37;;;;;;;12.65;8.02;;;;;;;;;;4931030;29;20028;-85
2022/12/04 12:22:37;;;;;;;15.57;9.15;;;;;;;;;;4909056;29;20036;-86
2022/12/04 12:25:02;;;;;;;13.13;8.32;;;;;;;;;;4929074;29;20032;-85
2022/12/04 12:27:33;;;;;;;15.82;9.35;;;;;;;;;;4921017;29;20031;-83
2022/12/04 12:30:13;;;;;;;15.10;8.57;;;;;;;;;;4920930;29;20404;-83
2022/12/04 12:32:59;;;;;;;13.25;7.68;;;;;;;;;;4921674;29;20040;-83
2022/12/04 12:35:40;;;;;;;13.02;8.15;;;;;;;;;;4916968;29;20044;-83
2022/12/04 12:38:17;;;;;;;12.80;8.13;;;;;;;;;;4925851;29;20035;-83
2022/12/04 12:40:48;;;;;;;15.10;8.60;;;;;;;;;;4941769;29;20036;-83
2022/12/04 12:43:28;;;;;;;14.32;8.65;;;;;;;;;;4922146;29;20036;-82
2022/12/04 12:46:03;;;;;;;13.98;8.05;;;;;;;;;;4940196;29;20052;-86
2022/12/04 12:48:36;;;;;;;14.93;8.38;;;;;;;;;;4926476;29;20047;-83
2022/12/04 12:51:30;;;;;;;11.90;7.20;;;;;;;;;;4924388;29;20032;-84
2022/12/04 12:54:08;;;;;;;12.73;7.82;;;;;;;;;;4905619;29;20040;-84
2022/12/04 12:56:38;;;;;;;13.10;7.45;;;;;;;;;;4940831;29;20040;-84
2022/12/04 12:59:08;;;;;;;11.82;7.75;;;;;;;;;;4941700;29;20063;-83
2022/12/04 13:01:44;;;;;;;12.35;7.97;;;;;;;;;;4927394;29;20095;-83
2022/12/04 13:04:27;;;;;;;13.57;8.07;;;;;;;;;;4942821;29;20043;-85
2022/12/04 13:07:16;;;;;;;11.20;7.60;;;;;;;;;;4924541;29;20131;-84
2022/12/04 13:09:47;;;;;;;12.85;7.78;;;;;;;;;;4939720;29;20039;-83
2022/12/04 13:12:15;;;;;;;13.25;8.35;;;;;;;;;;4935836;29;20067;-84
2022/12/04 13:14:41;;;;;;;11.88;7.25;;;;;;;;;;4937561;29;20378;-83
2022/12/04 13:17:27;;;;;;;23.52;13.10;;;;;;;;;;4921021;29;20503;-82
2022/12/04 13:19:56;;;;;;;13.60;8.10;;;;;;;;;;4937750;29;20040;-83
2022/12/04 13:22:45;;;;;;;14.93;9.77;;;;;;;;;;4938835;29;20165;-81
2022/12/04 13:25:33;;;;;;;20.95;13.00;;;;;;;;;;4938625;29;20482;-82
2022/12/04 13:28:13;;;;;;;16.33;10.57;;;;;;;;;;4938969;29;20028;-82
2022/12/04 13:31:01;;;;;;;20.88;13.45;;;;;;;;;;4921795;29;20047;-82
2022/12/04 13:33:54;;;;;;;17.58;10.82;;;;;;;;;;4938867;29;20039;-82
2022/12/04 13:36:29;;;;;;;15.93;9.77;;;;;;;;;;4938359;29;20194;-82
2022/12/04 13:39:28;;;;;;;15.05;8.95;;;;;;;;;;4938755;29;20477;-83
2022/12/04 13:42:00;;;;;;;16.02;9.32;;;;;;;;;;4921178;29;20043;-82
2022/12/04 13:44:28;;;;;;;14.98;8.95;;;;;;;;;;4938840;29;20031;-83
2022/12/04 13:47:04;;;;;;;14.63;9.35;;;;;;;;;;4938794;29;20498;-83
2022/12/04 13:49:34;;;;;;;16.23;9.40;;;;;;;;;;4938615;29;20040;-82
2022/12/04 13:52:05;;;;;;;22.90;11.82;;;;;;;;;;4938244;29;20527;-82
2022/12/04 13:54:34;;;;;;;21.33;10.27;;;;;;;;;;4938255;29;20493;-80
2022/12/04 13:57:11;;;;;;;14.05;8.63;;;;;;;;;;4938751;29;20027;-83
2022/12/04 13:59:38;;;;;;;14.02;9.02;;;;;;;;;;4940487;29;20032;-83
2022/12/04 14:02:20;;;;;;;16.27;9.45;;;;;;;;;;4938758;29;20030;-82
2022/12/04 14:04:52;;;;;;;14.07;9.13;;;;;;;;;;4920584;29;20743;-82
2022/12/04 14:07:26;;;;;;;15.52;9.20;;;;;;;;;;4937700;29;20044;-82
2022/12/04 14:09:54;;;;;;;15.57;9.57;;;;;;;;;;4938386;29;20065;-82
2022/12/04 14:12:27;;;;;;;15.68;9.25;;;;;;;;;;4921206;29;20042;-83
2022/12/04 14:15:02;;;;;;;16.95;9.65;;;;;;;;;;4937830;29;20127;-83
2022/12/04 14:17:32;;;;;;;15.48;9.48;;;;;;;;;;4938232;29;20049;-83
2022/12/04 14:20:00;;;;;;;17.17;9.45;;;;;;;;;;4921447;29;20090;-83
2022/12/04 14:22:36;;;;;;;16.00;9.40;;;;;;;;;;4938273;29;20023;-83
2022/12/04 14:25:33;;;;;;;12.98;8.10;;;;;;;;;;4938019;29;20039;-82
2022/12/04 14:27:58;;;;;;;12.27;7.85;;;;;;;;;;4937776;29;20031;-82
2022/12/04 14:30:38;;;;;;;12.90;8.05;;;;;;;;;;4920963;29;20461;-82
2022/12/04 14:33:20;;;;;;;11.00;7.25;;;;;;;;;;4937649;29;20062;-82
2022/12/04 14:35:57;;;;;;;12.05;7.13;;;;;;;;;;4937926;29;20389;-82
2022/12/04 14:38:24;;;;;;;12.82;7.32;;;;;;;;;;4936768;29;20040;-82
2022/12/04 14:40:55;;;;;;;11.10;7.45;;;;;;;;;;4938031;29;20096;-83
2022/12/04 14:43:22;;;;;;;11.82;7.57;;;;;;;;;;4920408;29;20078;-83
2022/12/04 14:46:21;;;;;;;11.60;7.28;;;;;;;;;;4937378;29;20031;-82
2022/12/04 14:49:24;;;;;;;12.85;9.05;;;;;;;;;;4926084;29;20043;-82
2022/12/04 14:52:10;;;;;;;12.90;7.78;;;;;;;;;;4937423;29;20048;-82
2022/12/04 14:54:53;;;;;;;12.18;7.65;;;;;;;;;;4936618;29;20702;-82
2022/12/04 14:57:28;;;;;;;;;;;;;;;;;;4920384;29;20044;-79
2022/12/04 14:59:54;;;;;;;12.70;7.20;;;;;;;;;;4937200;29;20594;-82
2022/12/04 15:02:24;;;;;;;12.68;7.97;;;;;;;;;;4937152;29;20070;-83
2022/12/04 15:04:50;;;;;;;13.70;8.30;;;;;;;;;;4937117;29;20043;-82
2022/12/04 15:07:21;;;;;;;13.95;8.27;;;;;;;;;;4920203;29;20036;-82
2022/12/04 15:12:44;;;;;;;14.10;8.75;;;;;;;;;;4937035;29;20385;-83